createdAt,value
2017-04-08T00:00:18.649Z,79.44
2017-04-08T00:01:18.636Z,79.06
2017-04-08T00:02:18.607Z,79.15
2017-04-08T00:03:18.584Z,79.25
2017-04-08T00:04:18.562Z,79.15
2017-04-08T00:05:18.591Z,79.44
2017-04-08T00:06:18.214Z,79.35
2017-04-08T00:07:18.495Z,79.35
2017-04-08T00:08:18.475Z,79.44
2017-04-08T00:09:18.450Z,79.35
2017-04-08T00:10:18.433Z,79.35
2017-04-08T00:11:18.412Z,79.53
2017-04-08T00:12:18.443Z,79.35
2017-04-08T00:13:18.362Z,79.44
2017-04-08T00:14:18.350Z,79.53
2017-04-08T00:15:18.323Z,80.2
2017-04-08T00:16:18.348Z,80.2
2017-04-08T00:17:18.282Z,79.63
2017-04-08T00:18:18.260Z,80.01
2017-04-08T00:19:18.236Z,80.11
2017-04-08T00:20:18.212Z,80.11
2017-04-08T00:21:18.188Z,79.91
2017-04-08T00:22:18.165Z,80.01
2017-04-08T00:23:18.147Z,80.3
2017-04-08T00:24:18.121Z,80.3
2017-04-08T00:25:18.105Z,80.39
2017-04-08T00:26:18.079Z,81.06
2017-04-08T00:27:18.053Z,81.15
2017-04-08T00:28:18.051Z,80.96
2017-04-08T00:29:18.023Z,80.77
2017-04-08T00:30:17.989Z,80.96
2017-04-08T00:31:18.068Z,80.96
2017-04-08T00:32:17.946Z,81.06
2017-04-08T00:33:17.926Z,81.25
2017-04-08T00:34:17.903Z,81.54
2017-04-08T00:35:17.879Z,81.54
2017-04-08T00:36:17.859Z,81.63
2017-04-08T00:37:17.840Z,81.4
2017-04-08T00:38:17.817Z,81.63
2017-04-08T00:39:17.793Z,82.11
2017-04-08T00:40:17.774Z,82.26
2017-04-08T00:41:17.749Z,82.07
2017-04-08T00:42:17.726Z,82.4
2017-04-08T00:43:17.703Z,82.54
2017-04-08T00:44:17.684Z,82.54
2017-04-08T00:45:17.660Z,82.54
2017-04-08T00:46:17.649Z,82.35
2017-04-08T00:47:17.614Z,82.64
2017-04-08T00:48:17.593Z,82.64
2017-04-08T00:49:17.577Z,82.35
2017-04-08T00:50:17.552Z,83.12
2017-04-08T00:51:17.531Z,82.83
2017-04-08T00:52:17.506Z,82.83
2017-04-08T00:53:17.485Z,82.83
2017-04-08T00:54:17.461Z,82.92
2017-04-08T00:55:17.438Z,82.92
2017-04-08T00:56:17.415Z,83.02
2017-04-08T00:57:17.394Z,82.92
2017-04-08T00:58:17.370Z,82.92
2017-04-08T00:59:17.358Z,83.31
2017-04-08T01:00:17.325Z,83.59
2017-04-08T01:01:17.303Z,83.31
2017-04-08T01:02:17.286Z,83.31
2017-04-08T01:03:17.260Z,83.12
2017-04-08T01:04:17.238Z,83.4
2017-04-08T01:05:17.216Z,83.69
2017-04-08T01:06:17.191Z,83.69
2017-04-08T01:07:17.168Z,83.69
2017-04-08T01:08:17.154Z,83.4
2017-04-08T01:09:18.238Z,84.16
2017-04-08T01:10:17.321Z,84.16
2017-04-08T01:11:17.087Z,84.07
2017-04-08T01:12:17.057Z,83.5
2017-04-08T01:13:17.043Z,83.44
2017-04-08T01:14:17.025Z,83.31
2017-04-08T01:15:17.005Z,83.64
2017-04-08T01:16:16.974Z,83.54
2017-04-08T01:17:16.955Z,83.06
2017-04-08T01:18:16.982Z,82.68
2017-04-08T01:19:16.901Z,82.3
2017-04-08T01:20:16.883Z,82.3
2017-04-08T01:21:16.860Z,82.11
2017-04-08T01:22:17.098Z,82.49
2017-04-08T01:23:16.817Z,82.87
2017-04-08T01:24:16.793Z,82.59
2017-04-08T01:25:16.771Z,82.59
2017-04-08T01:26:16.752Z,82.49
2017-04-08T01:27:16.728Z,82.49
2017-04-08T01:28:16.712Z,82.97
2017-04-08T01:29:16.681Z,82.49
2017-04-08T01:30:16.661Z,82.97
2017-04-08T01:31:16.640Z,83.06
2017-04-08T01:32:16.625Z,82.59
2017-04-08T01:33:16.644Z,82.49
2017-04-08T01:34:16.576Z,82.49
2017-04-08T01:35:16.552Z,82.11
2017-04-08T01:36:16.532Z,82.11
2017-04-08T01:37:16.508Z,81.82
2017-04-08T01:38:16.489Z,82.11
2017-04-08T01:39:16.462Z,82.01
2017-04-08T01:40:16.440Z,82.2
2017-04-08T01:41:16.418Z,82.3
2017-04-08T01:42:16.399Z,82.49
2017-04-08T01:43:16.373Z,82.68
2017-04-08T01:44:16.377Z,82.97
2017-04-08T01:45:16.329Z,83.06
2017-04-08T01:46:16.306Z,82.97
2017-04-08T01:47:16.286Z,83.54
2017-04-08T01:48:15.967Z,83.59
2017-04-08T01:49:16.244Z,83.97
2017-04-08T01:50:16.219Z,84.16
2017-04-08T01:51:16.250Z,84.07
2017-04-08T01:52:16.229Z,84.83
2017-04-08T01:53:16.212Z,84.92
2017-04-08T01:54:16.133Z,85.21
2017-04-08T01:55:16.109Z,84.92
2017-04-08T01:56:16.087Z,85.41
2017-04-08T01:57:16.067Z,85.97
2017-04-08T01:58:16.046Z,85.88
2017-04-08T01:59:16.020Z,85.46
2017-04-08T02:00:16.000Z,85.84
2017-04-08T02:01:15.974Z,86.16
2017-04-08T02:02:15.951Z,85.46
2017-04-08T02:03:15.983Z,86.03
2017-04-08T02:04:15.910Z,85.41
2017-04-08T02:05:15.886Z,86.12
2017-04-08T02:06:15.865Z,86.12
2017-04-08T02:07:15.840Z,86.32
2017-04-08T02:08:15.818Z,86.22
2017-04-08T02:09:15.805Z,86.32
2017-04-08T02:10:15.772Z,86.79
2017-04-08T02:11:15.750Z,86.69
2017-04-08T02:12:15.727Z,86.51
2017-04-08T02:13:15.707Z,86.69
2017-04-08T02:14:15.685Z,86.69
2017-04-08T02:15:15.659Z,86.51
2017-04-08T02:16:15.639Z,87.27
2017-04-08T02:17:15.619Z,87.07
2017-04-08T02:18:15.600Z,86.6
2017-04-08T02:19:15.575Z,86.51
2017-04-08T02:20:15.601Z,86.88
2017-04-08T02:21:15.223Z,86.88
2017-04-08T02:22:15.504Z,87.07
2017-04-08T02:23:15.483Z,87.17
2017-04-08T02:24:15.463Z,86.51
2017-04-08T02:25:15.444Z,87.27
2017-04-08T02:26:15.418Z,86.98
2017-04-08T02:27:15.396Z,86.98
2017-04-08T02:28:15.380Z,86.88
2017-04-08T02:29:15.357Z,86.98
2017-04-08T02:30:15.327Z,86.98
2017-04-08T02:31:15.307Z,86.88
2017-04-08T02:32:14.985Z,87.17
2017-04-08T02:33:15.265Z,87.07
2017-04-08T02:34:15.236Z,87.07
2017-04-08T02:35:15.218Z,86.88
2017-04-08T02:36:15.192Z,86.88
2017-04-08T02:37:15.171Z,86.79
2017-04-08T02:38:15.149Z,87.07
2017-04-08T02:39:15.187Z,87.17
2017-04-08T02:40:15.104Z,86.88
2017-04-08T02:41:15.083Z,87.07
2017-04-08T02:42:15.060Z,87.27
2017-04-08T02:43:15.037Z,87.27
2017-04-08T02:44:14.718Z,86.98
2017-04-08T02:45:14.991Z,86.88
2017-04-08T02:46:14.975Z,86.79
2017-04-08T02:47:14.948Z,86.98
2017-04-08T02:48:14.941Z,87.07
2017-04-08T02:49:14.907Z,86.98
2017-04-08T02:50:14.879Z,87.17
2017-04-08T02:51:14.857Z,87.55
2017-04-08T02:52:14.836Z,87.27
2017-04-08T02:53:14.839Z,87.07
2017-04-08T02:54:14.789Z,87.07
2017-04-08T02:55:14.770Z,86.98
2017-04-08T02:56:14.797Z,87.17
2017-04-08T02:57:14.722Z,87.46
2017-04-08T02:58:14.697Z,87.46
2017-04-08T02:59:14.685Z,87.17
2017-04-08T03:00:14.657Z,87.27
2017-04-08T03:01:14.636Z,87.65
2017-04-08T03:02:14.616Z,87.46
2017-04-08T03:03:14.593Z,87.27
2017-04-08T03:04:14.565Z,87.27
2017-04-08T03:05:14.545Z,87.36
2017-04-08T03:06:14.519Z,87.55
2017-04-08T03:07:14.500Z,87.65
2017-04-08T03:08:14.472Z,87.27
2017-04-08T03:09:14.451Z,87.55
2017-04-08T03:10:14.479Z,87.46
2017-04-08T03:11:14.413Z,87.36
2017-04-08T03:12:14.388Z,87.36
2017-04-08T03:13:14.362Z,87.46
2017-04-08T03:14:14.343Z,87.46
2017-04-08T03:15:14.316Z,87.46
2017-04-08T03:16:14.297Z,87.55
2017-04-08T03:17:14.278Z,87.6
2017-04-08T03:18:13.948Z,87.74
2017-04-08T03:19:14.229Z,87.7
2017-04-08T03:20:14.258Z,87.46
2017-04-08T03:21:13.885Z,87.74
2017-04-08T03:22:14.162Z,87.51
2017-04-08T03:23:14.142Z,87.55
2017-04-08T03:24:14.121Z,87.84
2017-04-08T03:25:14.093Z,87.74
2017-04-08T03:26:14.075Z,87.89
2017-04-08T03:27:14.050Z,87.79
2017-04-08T03:28:14.030Z,87.84
2017-04-08T03:29:14.005Z,87.55
2017-04-08T03:30:13.684Z,88.18
2017-04-08T03:31:13.963Z,87.93
2017-04-08T03:32:13.938Z,87.32
2017-04-08T03:33:13.916Z,87.07
2017-04-08T03:34:13.889Z,87.55
2017-04-08T03:35:13.876Z,87.89
2017-04-08T03:36:13.847Z,87.89
2017-04-08T03:37:13.827Z,88.08
2017-04-08T03:38:13.804Z,88.37
2017-04-08T03:39:13.783Z,88.27
2017-04-08T03:40:13.759Z,87.89
2017-04-08T03:41:13.737Z,87.89
2017-04-08T03:42:13.711Z,87.89
2017-04-08T03:43:13.692Z,87.98
2017-04-08T03:44:13.665Z,87.98
2017-04-08T03:45:13.640Z,87.98
2017-04-08T03:46:13.625Z,87.89
2017-04-08T03:47:13.604Z,87.98
2017-04-08T03:48:13.576Z,87.89
2017-04-08T03:49:13.553Z,88.08
2017-04-08T03:50:13.533Z,88.08
2017-04-08T03:51:13.509Z,88.08
2017-04-08T03:52:13.487Z,88.08
2017-04-08T03:53:13.468Z,88.27
2017-04-08T03:54:13.440Z,88.27
2017-04-08T03:55:13.418Z,88.27
2017-04-08T03:56:13.402Z,88.56
2017-04-08T03:57:13.379Z,88.75
2017-04-08T03:58:13.357Z,88.56
2017-04-08T03:59:13.331Z,88.18
2017-04-08T04:00:13.608Z,88.08
2017-04-08T04:01:13.285Z,88.37
2017-04-08T04:02:13.264Z,88.46
2017-04-08T04:03:13.240Z,88.37
2017-04-08T04:04:13.215Z,88.37
2017-04-08T04:05:13.193Z,88.46
2017-04-08T04:06:13.170Z,88.27
2017-04-08T04:07:13.147Z,88.65
2017-04-08T04:08:13.129Z,88.56
2017-04-08T04:09:13.109Z,88.08
2017-04-08T04:10:13.082Z,88.56
2017-04-08T04:11:13.057Z,88.65
2017-04-08T04:12:13.083Z,88.37
2017-04-08T04:13:13.013Z,88.46
2017-04-08T04:14:12.994Z,88.56
2017-04-08T04:15:12.967Z,88.65
2017-04-08T04:16:12.994Z,88.75
2017-04-08T04:17:12.931Z,88.65
2017-04-08T04:18:12.901Z,88.27
2017-04-08T04:19:12.880Z,88.75
2017-04-08T04:20:12.854Z,88.75
2017-04-08T04:21:12.834Z,88.37
2017-04-08T04:22:12.807Z,88.08
2017-04-08T04:23:12.788Z,88.08
2017-04-08T04:24:12.769Z,88.08
2017-04-08T04:25:12.741Z,88.27
2017-04-08T04:26:12.743Z,88.37
2017-04-08T04:27:12.702Z,88.08
2017-04-08T04:28:12.671Z,88.18
2017-04-08T04:29:12.652Z,88.18
2017-04-08T04:30:12.628Z,88.08
2017-04-08T04:31:12.612Z,88.46
2017-04-08T04:32:12.580Z,88.56
2017-04-08T04:33:12.563Z,88.08
2017-04-08T04:34:12.541Z,88.46
2017-04-08T04:35:12.513Z,88.46
2017-04-08T04:36:12.495Z,88.37
2017-04-08T04:37:12.522Z,89.03
2017-04-08T04:38:12.446Z,88.93
2017-04-08T04:39:12.432Z,89.03
2017-04-08T04:40:12.414Z,88.75
2017-04-08T04:41:12.479Z,88.84
2017-04-08T04:42:12.615Z,88.75
2017-04-08T04:43:13.482Z,88.56
2017-04-08T04:44:12.317Z,88.84
2017-04-08T04:45:12.288Z,89.41
2017-04-08T04:46:12.261Z,89.32
2017-04-08T04:47:12.254Z,89.03
2017-04-08T04:48:12.222Z,89.32
2017-04-08T04:49:12.208Z,88.93
2017-04-08T04:50:12.182Z,89.32
2017-04-08T04:51:12.163Z,89.22
2017-04-08T04:52:12.131Z,89.03
2017-04-08T04:53:12.113Z,89.22
2017-04-08T04:54:12.088Z,89.13
2017-04-08T04:55:12.060Z,89.51
2017-04-08T04:56:12.044Z,88.75
2017-04-08T04:57:12.015Z,88.84
2017-04-08T04:58:11.990Z,88.93
2017-04-08T04:59:11.975Z,89.41
2017-04-08T05:00:11.951Z,89.41
2017-04-08T05:01:11.933Z,89.13
2017-04-08T05:02:11.910Z,89.22
2017-04-08T05:03:11.886Z,89.22
2017-04-08T05:04:11.860Z,89.03
2017-04-08T05:05:11.840Z,89.22
2017-04-08T05:06:11.811Z,89.41
2017-04-08T05:07:11.792Z,89.41
2017-04-08T05:08:11.766Z,88.93
2017-04-08T05:09:11.749Z,88.75
2017-04-08T05:10:11.719Z,88.84
2017-04-08T05:11:11.697Z,88.65
2017-04-08T05:12:11.675Z,88.84
2017-04-08T05:13:11.662Z,88.93
2017-04-08T05:14:11.631Z,89.13
2017-04-08T05:15:11.610Z,88.84
2017-04-08T05:16:11.579Z,88.84
2017-04-08T05:17:11.563Z,88.65
2017-04-08T05:18:11.542Z,88.56
2017-04-08T05:19:11.523Z,88.93
2017-04-08T05:20:11.496Z,88.65
2017-04-08T05:21:11.470Z,88.75
2017-04-08T05:22:11.453Z,88.75
2017-04-08T05:23:11.429Z,88.93
2017-04-08T05:24:11.098Z,88.65
2017-04-08T05:25:11.384Z,88.84
2017-04-08T05:26:11.357Z,88.75
2017-04-08T05:27:11.334Z,88.75
2017-04-08T05:28:11.314Z,88.65
2017-04-08T05:29:11.312Z,88.93
2017-04-08T05:30:10.971Z,88.93
2017-04-08T05:31:11.246Z,88.27
2017-04-08T05:32:11.227Z,89.22
2017-04-08T05:33:11.197Z,89.03
2017-04-08T05:34:11.182Z,88.08
2017-04-08T05:35:11.157Z,88.27
2017-04-08T05:36:11.138Z,88.56
2017-04-08T05:37:11.110Z,88.18
2017-04-08T05:38:11.088Z,88.46
2017-04-08T05:39:11.072Z,88.27
2017-04-08T05:40:11.043Z,88.08
2017-04-08T05:41:11.026Z,88.27
2017-04-08T05:42:11.001Z,88.27
2017-04-08T05:43:10.977Z,88.27
2017-04-08T05:44:10.951Z,88.27
2017-04-08T05:45:10.931Z,88.46
2017-04-08T05:46:10.908Z,88.37
2017-04-08T05:47:10.886Z,88.18
2017-04-08T05:48:10.911Z,88.46
2017-04-08T05:49:10.840Z,88.46
2017-04-08T05:50:10.819Z,88.56
2017-04-08T05:51:10.799Z,88.27
2017-04-08T05:52:10.774Z,88.37
2017-04-08T05:53:10.751Z,88.37
2017-04-08T05:54:10.728Z,88.46
2017-04-08T05:55:10.863Z,88.46
2017-04-08T05:56:10.680Z,88.27
2017-04-08T05:57:10.658Z,88.46
2017-04-08T05:58:10.647Z,88.18
2017-04-08T05:59:10.616Z,88.27
2017-04-08T06:00:10.594Z,88.56
2017-04-08T06:01:10.569Z,88.46
2017-04-08T06:02:10.546Z,88.27
2017-04-08T06:03:10.526Z,88.27
2017-04-08T06:04:10.501Z,88.46
2017-04-08T06:05:10.484Z,88.46
2017-04-08T06:06:10.511Z,88.84
2017-04-08T06:07:10.448Z,88.93
2017-04-08T06:08:10.417Z,88.46
2017-04-08T06:09:10.393Z,88.56
2017-04-08T06:10:10.373Z,88.65
2017-04-08T06:11:10.369Z,88.7
2017-04-08T06:12:10.026Z,89.07
2017-04-08T06:13:10.373Z,89.07
2017-04-08T06:14:10.276Z,88.98
2017-04-08T06:15:10.312Z,88.89
2017-04-08T06:16:10.269Z,89.07
2017-04-08T06:17:10.214Z,88.41
2017-04-08T06:18:10.241Z,88.41
2017-04-08T06:19:10.216Z,88.7
2017-04-08T06:20:10.142Z,88.51
2017-04-08T06:21:10.135Z,88.51
2017-04-08T06:22:10.101Z,88.51
2017-04-08T06:23:10.080Z,88.6
2017-04-08T06:24:10.055Z,88.6
2017-04-08T06:25:10.038Z,88.12
2017-04-08T06:26:10.017Z,88.12
2017-04-08T06:27:09.994Z,88.22
2017-04-08T06:28:09.999Z,88.12
2017-04-08T06:29:09.949Z,88.03
2017-04-08T06:30:09.920Z,88.03
2017-04-08T06:31:09.902Z,87.93
2017-04-08T06:32:09.878Z,87.93
2017-04-08T06:33:09.606Z,88.12
2017-04-08T06:34:09.837Z,87.93
2017-04-08T06:35:09.820Z,88.12
2017-04-08T06:36:09.795Z,88.03
2017-04-08T06:37:10.367Z,87.93
2017-04-08T06:38:09.744Z,88.22
2017-04-08T06:39:09.727Z,87.84
2017-04-08T06:40:09.700Z,88.12
2017-04-08T06:41:09.684Z,87.93
2017-04-08T06:42:09.655Z,87.93
2017-04-08T06:43:09.634Z,88.12
2017-04-08T06:44:09.617Z,87.46
2017-04-08T06:45:09.615Z,87.74
2017-04-08T06:46:09.567Z,87.65
2017-04-08T06:47:09.546Z,87.55
2017-04-08T06:48:09.526Z,87.55
2017-04-08T06:49:09.505Z,87.27
2017-04-08T06:50:09.479Z,87.07
2017-04-08T06:51:09.459Z,87.07
2017-04-08T06:52:09.438Z,86.98
2017-04-08T06:53:09.414Z,87.07
2017-04-08T06:54:09.391Z,87.07
2017-04-08T06:55:09.370Z,87.65
2017-04-08T06:56:09.347Z,86.88
2017-04-08T06:57:09.349Z,87.17
2017-04-08T06:58:09.302Z,86.69
2017-04-08T06:59:09.283Z,86.41
2017-04-08T07:00:09.258Z,86.51
2017-04-08T07:01:09.236Z,86.88
2017-04-08T07:02:09.217Z,87.07
2017-04-08T07:03:09.194Z,86.79
2017-04-08T07:04:09.179Z,86.51
2017-04-08T07:05:09.150Z,86.65
2017-04-08T07:06:09.428Z,86.88
2017-04-08T07:07:09.147Z,86.16
2017-04-08T07:08:09.085Z,86.45
2017-04-08T07:09:08.811Z,85.6
2017-04-08T07:10:09.040Z,85.69
2017-04-08T07:11:09.018Z,86.26
2017-04-08T07:12:09.001Z,85.69
2017-04-08T07:13:08.986Z,85.69
2017-04-08T07:14:08.654Z,85.88
2017-04-08T07:15:08.929Z,85.88
2017-04-08T07:16:08.909Z,85.69
2017-04-08T07:17:08.889Z,85.21
2017-04-08T07:18:08.867Z,85.97
2017-04-08T07:19:08.844Z,85.31
2017-04-08T07:20:08.827Z,85.31
2017-04-08T07:21:08.801Z,85.5
2017-04-08T07:22:08.789Z,85.21
2017-04-08T07:23:08.754Z,85.31
2017-04-08T07:24:09.191Z,84.92
2017-04-08T07:25:08.768Z,84.92
2017-04-08T07:26:08.701Z,84.45
2017-04-08T07:27:08.673Z,84.74
2017-04-08T07:28:08.343Z,84.26
2017-04-08T07:29:08.627Z,84.55
2017-04-08T07:30:08.607Z,84.16
2017-04-08T07:31:08.592Z,84.07
2017-04-08T07:32:08.565Z,84.11
2017-04-08T07:33:08.545Z,83.16
2017-04-08T07:34:08.579Z,83.54
2017-04-08T07:35:08.511Z,83.06
2017-04-08T07:36:08.490Z,82.78
2017-04-08T07:37:08.461Z,82.49
2017-04-08T07:38:08.439Z,82.3
2017-04-08T07:39:08.415Z,82.59
2017-04-08T07:40:08.394Z,82.49
2017-04-08T07:41:08.378Z,82.68
2017-04-08T07:42:08.346Z,82.49
2017-04-08T07:43:08.329Z,82.49
2017-04-08T07:44:08.308Z,82.11
2017-04-08T07:45:08.287Z,82.2
2017-04-08T07:46:08.303Z,81.63
2017-04-08T07:47:08.243Z,81.82
2017-04-08T07:48:08.223Z,81.92
2017-04-08T07:49:08.203Z,81.82
2017-04-08T07:50:08.183Z,81.63
2017-04-08T07:51:08.160Z,81.15
2017-04-08T07:52:08.137Z,81.63
2017-04-08T07:53:08.116Z,80.96
2017-04-08T07:54:08.096Z,80.77
2017-04-08T07:55:08.072Z,80.43
2017-04-08T07:56:08.091Z,80.2
2017-04-08T07:57:08.028Z,80.11
2017-04-08T07:58:08.016Z,80.2
2017-04-08T07:59:07.686Z,80.2
2017-04-08T08:00:07.965Z,80.01
2017-04-08T08:01:07.947Z,80.3
2017-04-08T08:02:07.941Z,79.91
2017-04-08T08:03:07.907Z,79.91
2017-04-08T08:04:07.879Z,80.3
2017-04-08T08:05:07.860Z,80.2
2017-04-08T08:06:07.541Z,79.67
2017-04-08T08:07:07.822Z,79.28
2017-04-08T08:08:07.798Z,79.38
2017-04-08T08:09:07.783Z,79.38
2017-04-08T08:10:07.763Z,79.19
2017-04-08T08:11:07.740Z,78.33
2017-04-08T08:12:07.713Z,78.14
2017-04-08T08:13:07.701Z,77.57
2017-04-08T08:14:07.692Z,77.86
2017-04-08T08:15:07.655Z,78.05
2017-04-08T08:16:07.633Z,77.47
2017-04-08T08:17:07.615Z,77.13
2017-04-08T08:18:07.591Z,76.71
2017-04-08T08:19:07.572Z,76.27
2017-04-08T08:20:07.555Z,75.22
2017-04-08T08:21:07.232Z,75.42
2017-04-08T08:22:07.505Z,75.42
2017-04-08T08:23:07.494Z,74.93
2017-04-08T08:24:07.520Z,75.03
2017-04-08T08:25:07.445Z,74.74
2017-04-08T08:26:07.432Z,74.84
2017-04-08T08:27:07.407Z,74.37
2017-04-08T08:28:07.434Z,74.65
2017-04-08T08:29:07.372Z,73.98
2017-04-08T08:30:07.350Z,73.6
2017-04-08T08:31:07.322Z,73.98
2017-04-08T08:32:07.301Z,73.32
2017-04-08T08:33:06.976Z,72.83
2017-04-08T08:34:07.262Z,73.22
2017-04-08T08:35:07.243Z,72.36
2017-04-08T08:36:07.219Z,72.64
2017-04-08T08:37:07.203Z,72.93
2017-04-08T08:38:07.185Z,72.49
2017-04-08T08:39:07.160Z,72.39
2017-04-08T08:40:07.138Z,71.82
2017-04-08T08:41:07.112Z,71.92
2017-04-08T08:42:07.098Z,71.72
2017-04-08T08:43:07.074Z,71.72
2017-04-08T08:44:07.070Z,70.87
2017-04-08T08:45:07.046Z,70.29
2017-04-08T08:46:07.016Z,70.58
2017-04-08T08:47:06.990Z,70.39
2017-04-08T08:48:06.977Z,70.39
2017-04-08T08:49:06.962Z,70.29
2017-04-08T08:50:06.933Z,70.58
2017-04-08T08:51:06.912Z,70.39
2017-04-08T08:52:06.892Z,70.01
2017-04-08T08:53:06.878Z,70.67
2017-04-08T08:54:06.870Z,70.48
2017-04-08T08:55:06.531Z,70.29
2017-04-08T08:56:06.809Z,70.29
2017-04-08T08:57:06.796Z,70.01
2017-04-08T08:58:06.771Z,69.24
2017-04-08T08:59:06.754Z,69.53
2017-04-08T09:00:06.735Z,69.37
2017-04-08T09:01:06.718Z,69.15
2017-04-08T09:02:06.396Z,69.09
2017-04-08T09:03:06.681Z,68.7
2017-04-08T09:04:06.753Z,67.65
2017-04-08T09:05:06.686Z,67.84
2017-04-08T09:06:06.318Z,68.23
2017-04-08T09:07:06.591Z,68.41
2017-04-08T09:08:06.625Z,67.08
2017-04-08T09:09:06.567Z,66.99
2017-04-08T09:10:06.733Z,66.5
2017-04-08T09:11:06.517Z,66.79
2017-04-08T09:12:06.528Z,66.99
2017-04-08T09:13:06.178Z,66.79
2017-04-08T09:14:06.449Z,66.99
2017-04-08T09:15:06.438Z,67.18
2017-04-08T09:16:06.413Z,67.18
2017-04-08T09:17:06.393Z,66.79
2017-04-08T09:18:06.395Z,66.22
2017-04-08T09:19:06.356Z,66.6
2017-04-08T09:20:06.337Z,65.93
2017-04-08T09:21:06.313Z,65.74
2017-04-08T09:22:06.345Z,65.93
2017-04-08T09:23:06.279Z,66.03
2017-04-08T09:24:06.303Z,65.74
2017-04-08T09:25:05.932Z,65.48
2017-04-08T09:26:06.219Z,65.11
2017-04-08T09:27:06.212Z,65.77
2017-04-08T09:28:06.169Z,64.72
2017-04-08T09:29:06.165Z,64.43
2017-04-08T09:30:06.136Z,64.62
2017-04-08T09:31:06.117Z,64.15
2017-04-08T09:32:06.148Z,63.96
2017-04-08T09:33:06.129Z,63.48
2017-04-08T09:34:06.073Z,63.96
2017-04-08T09:35:06.044Z,63.86
2017-04-08T09:36:06.016Z,63.42
2017-04-08T09:37:05.998Z,63.42
2017-04-08T09:38:05.983Z,63.23
2017-04-08T09:39:05.963Z,62.37
2017-04-08T09:40:05.939Z,61.85
2017-04-08T09:41:05.921Z,62.24
2017-04-08T09:42:05.910Z,62.62
2017-04-08T09:43:05.887Z,62.9
2017-04-08T09:44:05.860Z,62.04
2017-04-08T09:45:05.853Z,61.76
2017-04-08T09:46:05.825Z,61.66
2017-04-08T09:47:05.812Z,61.66
2017-04-08T09:48:05.792Z,62.14
2017-04-08T09:49:05.775Z,61.66
2017-04-08T09:50:05.747Z,61.85
2017-04-08T09:51:05.728Z,61.95
2017-04-08T09:52:05.707Z,61.85
2017-04-08T09:53:05.696Z,62.11
2017-04-08T09:54:05.725Z,62.21
2017-04-08T09:55:05.646Z,62.68
2017-04-08T09:56:05.625Z,62.21
2017-04-08T09:57:05.623Z,62.21
2017-04-08T09:58:05.620Z,62.68
2017-04-08T09:59:05.570Z,62.43
2017-04-08T10:00:05.551Z,63.1
2017-04-08T10:01:05.536Z,62.3
2017-04-08T10:02:05.509Z,62.33
2017-04-08T10:03:05.493Z,61.47
2017-04-08T10:04:05.474Z,61.66
2017-04-08T10:05:05.471Z,61.76
2017-04-08T10:06:05.440Z,61.19
2017-04-08T10:07:05.406Z,61.66
2017-04-08T10:08:05.394Z,61.66
2017-04-08T10:09:05.375Z,61.85
2017-04-08T10:10:05.401Z,61.28
2017-04-08T10:11:05.335Z,61.47
2017-04-08T10:12:05.314Z,61.57
2017-04-08T10:13:05.347Z,60.99
2017-04-08T10:14:05.275Z,60.93
2017-04-08T10:15:05.251Z,60.9
2017-04-08T10:16:05.232Z,61.57
2017-04-08T10:17:05.217Z,61.79
2017-04-08T10:18:05.204Z,61.41
2017-04-08T10:19:05.173Z,60.93
2017-04-08T10:20:05.153Z,60.74
2017-04-08T10:21:05.139Z,60.64
2017-04-08T10:22:05.121Z,60.74
2017-04-08T10:23:05.105Z,60.29
2017-04-08T10:24:05.079Z,60.29
2017-04-08T10:25:05.060Z,59.88
2017-04-08T10:26:05.042Z,59.2
2017-04-08T10:27:05.022Z,59.59
2017-04-08T10:28:05.070Z,60.23
2017-04-08T10:29:04.983Z,60.71
2017-04-08T10:30:04.962Z,60.9
2017-04-08T10:31:04.945Z,60.9
2017-04-08T10:32:04.925Z,60.8
2017-04-08T10:33:04.905Z,61.38
2017-04-08T10:34:04.885Z,61.57
2017-04-08T10:35:04.916Z,60.8
2017-04-08T10:36:04.852Z,60.71
2017-04-08T10:37:04.827Z,60.99
2017-04-08T10:38:04.805Z,61.19
2017-04-08T10:39:04.788Z,60.99
2017-04-08T10:40:04.766Z,60.83
2017-04-08T10:41:04.801Z,60.35
2017-04-08T10:42:04.729Z,60.06
2017-04-08T10:43:04.706Z,59.4
2017-04-08T10:44:04.391Z,59.2
2017-04-08T10:45:04.678Z,58.73
2017-04-08T10:46:04.653Z,59.11
2017-04-08T10:47:04.630Z,59.88
2017-04-08T10:48:04.616Z,59.59
2017-04-08T10:49:04.600Z,59.4
2017-04-08T10:50:04.570Z,59.14
2017-04-08T10:51:04.559Z,58.86
2017-04-08T10:52:04.536Z,58.47
2017-04-08T10:53:04.513Z,58.47
2017-04-08T10:54:04.503Z,58.12
2017-04-08T10:55:04.504Z,57.73
2017-04-08T10:56:04.459Z,57.73
2017-04-08T10:57:04.435Z,56.42
2017-04-08T10:58:04.126Z,56.87
2017-04-08T10:59:04.404Z,57.35
2017-04-08T11:00:04.382Z,56.2
2017-04-08T11:01:04.371Z,56.2
2017-04-08T11:02:04.342Z,57.32
2017-04-08T11:03:04.320Z,57.42
2017-04-08T11:04:04.306Z,56.49
2017-04-08T11:05:04.289Z,56.56
2017-04-08T11:06:04.268Z,56.37
2017-04-08T11:07:04.708Z,56.27
2017-04-08T11:08:04.233Z,55.91
2017-04-08T11:09:04.219Z,55.44
2017-04-08T11:10:04.192Z,55.34
2017-04-08T11:11:04.180Z,55.56
2017-04-08T11:12:03.854Z,55.94
2017-04-08T11:13:04.137Z,55.34
2017-04-08T11:14:04.112Z,54.67
2017-04-08T11:15:04.099Z,54.32
2017-04-08T11:16:04.077Z,54.6
2017-04-08T11:17:04.061Z,55.34
2017-04-08T11:18:04.041Z,55.73
2017-04-08T11:19:04.033Z,55.44
2017-04-08T11:20:04.001Z,54.67
2017-04-08T11:21:03.983Z,54.28
2017-04-08T11:22:04.021Z,54.55
2017-04-08T11:23:03.945Z,55.12
2017-04-08T11:24:03.932Z,55.02
2017-04-08T11:25:03.910Z,55.6
2017-04-08T11:26:03.898Z,55.22
2017-04-08T11:27:03.872Z,55.1
2017-04-08T11:28:03.851Z,55.38
2017-04-08T11:29:03.831Z,55.47
2017-04-08T11:30:03.811Z,56.15
2017-04-08T11:31:03.797Z,56.34
2017-04-08T11:32:04.923Z,56.34
2017-04-08T11:33:03.765Z,56.4
2017-04-08T11:34:03.734Z,56.12
2017-04-08T11:35:03.714Z,56.4
2017-04-08T11:36:03.705Z,56.98
2017-04-08T11:37:03.680Z,57.26
2017-04-08T11:38:03.654Z,56.79
2017-04-08T11:39:03.686Z,56.72
2017-04-08T11:40:03.615Z,56.34
2017-04-08T11:41:03.598Z,56.34
2017-04-08T11:42:03.576Z,56.24
2017-04-08T11:43:03.554Z,55.86
2017-04-08T11:44:03.556Z,55.41
2017-04-08T11:45:03.518Z,55.02
2017-04-08T11:46:03.499Z,54.33
2017-04-08T11:47:03.486Z,54.45
2017-04-08T11:48:03.460Z,54.14
2017-04-08T11:49:03.439Z,53.18
2017-04-08T11:50:03.424Z,53.94
2017-04-08T11:51:03.403Z,54.04
2017-04-08T11:52:03.378Z,54.33
2017-04-08T11:53:03.366Z,54.9
2017-04-08T11:54:03.341Z,54.55
2017-04-08T11:55:03.326Z,54.07
2017-04-08T11:56:03.017Z,54.07
2017-04-08T11:57:03.285Z,54
2017-04-08T11:58:03.266Z,53.52
2017-04-08T11:59:03.247Z,52.59
2017-04-08T12:00:03.227Z,52.5
2017-04-08T12:01:03.216Z,51.63
2017-04-08T12:02:03.189Z,51.54
2017-04-08T12:03:03.179Z,50.87
2017-04-08T12:04:03.156Z,50.58
2017-04-08T12:05:03.126Z,50.48
2017-04-08T12:06:03.111Z,50.67
2017-04-08T12:07:03.092Z,51.03
2017-04-08T12:08:03.124Z,50.65
2017-04-08T12:09:04.413Z,51.03
2017-04-08T12:10:03.031Z,51.32
2017-04-08T12:11:03.023Z,51.42
2017-04-08T12:12:02.996Z,51.68
2017-04-08T12:13:03.044Z,51.58
2017-04-08T12:14:02.666Z,51.48
2017-04-08T12:15:02.934Z,51.97
2017-04-08T12:16:02.919Z,52.44
2017-04-08T12:17:02.617Z,51.97
2017-04-08T12:18:02.894Z,52.63
2017-04-08T12:19:02.861Z,52.25
2017-04-08T12:20:02.846Z,52.34
2017-04-08T12:21:02.825Z,52.34
2017-04-08T12:22:02.810Z,52.25
2017-04-08T12:23:02.786Z,51.97
2017-04-08T12:24:02.766Z,51.77
2017-04-08T12:25:02.746Z,51.48
2017-04-08T12:26:02.774Z,51.39
2017-04-08T12:27:02.703Z,51.68
2017-04-08T12:28:02.735Z,51.61
2017-04-08T12:29:02.883Z,51.61
2017-04-08T12:30:02.654Z,50.84
2017-04-08T12:31:02.650Z,50.07
2017-04-08T12:32:02.610Z,50.56
2017-04-08T12:33:02.600Z,50.36
2017-04-08T12:34:02.587Z,50.36
2017-04-08T12:35:02.552Z,49.88
2017-04-08T12:36:02.584Z,49.33
2017-04-08T12:37:02.217Z,49.14
2017-04-08T12:38:02.500Z,48.85
2017-04-08T12:39:02.693Z,48.57
2017-04-08T12:40:02.462Z,48.38
2017-04-08T12:41:02.489Z,48.47
2017-04-08T12:42:02.118Z,48.28
2017-04-08T12:43:02.400Z,48.09
2017-04-08T12:44:02.385Z,48.38
2017-04-08T12:45:02.366Z,48.28
2017-04-08T12:46:02.346Z,48.25
2017-04-08T12:47:02.327Z,48.44
2017-04-08T12:48:02.321Z,48.73
2017-04-08T12:49:01.989Z,48.93
2017-04-08T12:50:02.274Z,49.6
2017-04-08T12:51:02.259Z,50.15
2017-04-08T12:52:02.231Z,50.34
2017-04-08T12:53:02.214Z,50.15
2017-04-08T12:54:02.201Z,50.52